Time;durP1;ratioP1;P1;durP2;ratioP2;P2;SDS_P1;SDS_P2;PMS_P1;PMS_P2;Temp;Humidity;BMP_temperature;BMP_pressure;BME280_temperature;BME280_humidity;BME280_pressure;Samples;Min_cycle;Max_cycle;Signal;HPM_P1;HPM_P2
2023/03/31 00:00:37;;;;;;;16.87;8.00;;;;;;;;;;4953316;29;20203;-53
2023/03/31 00:03:08;;;;;;;10.57;6.93;;;;;;;;;;4953278;29;20227;-53
2023/03/31 00:05:37;;;;;;;10.67;6.67;;;;;;;;;;4949633;28;20235;-53
2023/03/31 00:08:03;;;;;;;10.23;6.77;;;;;;;;;;4953347;29;20220;-53
2023/03/31 00:10:30;;;;;;;9.87;7.53;;;;;;;;;;4953345;28;20266;-54
2023/03/31 00:12:56;;;;;;;9.47;6.73;;;;;;;;;;4953390;28;20203;-54
2023/03/31 00:15:22;;;;;;;10.93;7.00;;;;;;;;;;4953235;29;20254;-53
2023/03/31 00:17:48;;;;;;;11.53;7.00;;;;;;;;;;4953311;29;20568;-53
2023/03/31 00:20:14;;;;;;;12.87;7.37;;;;;;;;;;4953321;29;20255;-53
2023/03/31 00:22:45;;;;;;;10.73;6.30;;;;;;;;;;4953329;29;20636;-53
2023/03/31 00:25:11;;;;;;;10.07;7.10;;;;;;;;;;4953134;28;20242;-53
2023/03/31 00:27:37;;;;;;;11.47;6.30;;;;;;;;;;4953136;29;20203;-53
2023/03/31 00:30:04;;;;;;;9.83;6.20;;;;;;;;;;4953011;29;20203;-53
2023/03/31 00:32:32;;;;;;;10.30;6.23;;;;;;;;;;4953010;29;20234;-53
2023/03/31 00:34:58;;;;;;;8.03;5.87;;;;;;;;;;4953340;28;20204;-53
2023/03/31 00:37:24;;;;;;;9.73;5.80;;;;;;;;;;4952868;29;20264;-53
2023/03/31 00:39:51;;;;;;;9.63;6.13;;;;;;;;;;4953161;29;20207;-53
2023/03/31 00:42:17;;;;;;;10.10;6.13;;;;;;;;;;4952866;29;20735;-53
2023/03/31 00:44:58;;;;;;;8.87;5.70;;;;;;;;;;4953951;28;20306;-53
2023/03/31 00:47:25;;;;;;;10.33;5.40;;;;;;;;;;4956295;29;20207;-53
2023/03/31 00:49:55;;;;;;;9.77;5.40;;;;;;;;;;4956526;29;20210;-54
2023/03/31 00:52:23;;;;;;;7.07;4.57;;;;;;;;;;4956341;28;20231;-53
2023/03/31 00:54:51;;;;;;;9.03;5.17;;;;;;;;;;4956447;29;20200;-53
2023/03/31 00:57:18;;;;;;;9.83;5.20;;;;;;;;;;4956257;29;20199;-53
2023/03/31 00:59:46;;;;;;;9.40;4.70;;;;;;;;;;4956515;29;20212;-53
2023/03/31 01:02:13;;;;;;;12.23;4.70;;;;;;;;;;4956263;29;20685;-53
2023/03/31 01:04:41;;;;;;;8.03;5.37;;;;;;;;;;4956254;29;20228;-53
2023/03/31 01:07:11;;;;;;;8.43;4.20;;;;;;;;;;4956179;29;20192;-53
2023/03/31 01:09:38;;;;;;;11.03;5.27;;;;;;;;;;4956039;28;20203;-53
2023/03/31 01:12:07;;;;;;;13.57;5.33;;;;;;;;;;4955957;29;20200;-53
2023/03/31 01:14:34;;;;;;;8.20;4.03;;;;;;;;;;4955844;29;20203;-53
2023/03/31 01:17:01;;;;;;;9.00;4.37;;;;;;;;;;4955790;29;20659;-53
2023/03/31 01:19:32;;;;;;;12.37;5.13;;;;;;;;;;4955791;28;20212;-53
2023/03/31 01:22:07;;;;;;;9.57;3.93;;;;;;;;;;4955834;28;20212;-53
2023/03/31 01:25:00;;;;;;;9.43;4.20;;;;;;;;;;4955665;29;20274;-53
2023/03/31 01:27:42;;;;;;;7.53;3.70;;;;;;;;;;4946251;29;20208;-53
2023/03/31 01:30:22;;;;;;;10.53;4.40;;;;;;;;;;4955794;28;20585;-54
2023/03/31 01:33:06;;;;;;;8.17;4.07;;;;;;;;;;4955730;29;20228;-53
2023/03/31 01:35:47;;;;;;;9.60;3.93;;;;;;;;;;4955561;29;20200;-53
2023/03/31 01:38:24;;;;;;;8.53;4.47;;;;;;;;;;4933726;28;20334;-54
2023/03/31 01:40:57;;;;;;;7.20;4.07;;;;;;;;;;4955605;28;20583;-58
2023/03/31 01:43:25;;;;;;;7.27;4.20;;;;;;;;;;4955303;28;20211;-53
2023/03/31 01:45:55;;;;;;;8.53;4.53;;;;;;;;;;4955531;29;20710;-52
2023/03/31 01:48:28;;;;;;;6.93;4.10;;;;;;;;;;4955282;28;20227;-53
2023/03/31 01:50:56;;;;;;;10.23;4.70;;;;;;;;;;4955546;28;20278;-53
2023/03/31 01:53:24;;;;;;;8.70;4.60;;;;;;;;;;4955268;29;20263;-53
2023/03/31 01:55:54;;;;;;;8.10;4.30;;;;;;;;;;4954762;28;20669;-53
2023/03/31 01:58:24;;;;;;;9.70;4.47;;;;;;;;;;4954941;29;20226;-54
2023/03/31 02:00:55;;;;;;;7.87;4.30;;;;;;;;;;4955300;29;20219;-53
2023/03/31 02:03:23;;;;;;;4.87;3.77;;;;;;;;;;4955158;28;20290;-53
2023/03/31 02:05:52;;;;;;;10.17;4.20;;;;;;;;;;4969057;28;20209;-53
2023/03/31 02:08:21;;;;;;;7.83;4.30;;;;;;;;;;4974249;28;20289;-57
2023/03/31 02:10:48;;;;;;;7.93;3.73;;;;;;;;;;4974463;28;20558;-53
2023/03/31 02:13:16;;;;;;;8.63;4.13;;;;;;;;;;4974190;28;20685;-53
2023/03/31 02:15:45;;;;;;;7.97;4.30;;;;;;;;;;4974410;28;20281;-54
2023/03/31 02:18:16;;;;;;;9.93;3.90;;;;;;;;;;4974211;28;20281;-53
2023/03/31 02:20:42;;;;;;;7.33;4.10;;;;;;;;;;4974419;28;20250;-53
2023/03/31 02:23:10;;;;;;;8.47;4.27;;;;;;;;;;4974039;28;20207;-53
2023/03/31 02:25:38;;;;;;;9.63;4.43;;;;;;;;;;4973919;28;20265;-54
2023/03/31 02:28:07;;;;;;;10.77;4.67;;;;;;;;;;4973868;28;20206;-53
2023/03/31 02:30:36;;;;;;;8.97;4.53;;;;;;;;;;4973803;28;20195;-54
2023/03/31 02:33:04;;;;;;;7.13;4.03;;;;;;;;;;4973852;28;20740;-54
2023/03/31 02:35:30;;;;;;;8.23;4.87;;;;;;;;;;4973885;28;20289;-54
2023/03/31 02:37:57;;;;;;;11.13;4.37;;;;;;;;;;4973841;28;20242;-54
2023/03/31 02:40:26;;;;;;;7.17;4.93;;;;;;;;;;4973768;28;20203;-54
2023/03/31 02:42:52;;;;;;;7.87;4.20;;;;;;;;;;4973753;28;20228;-54
2023/03/31 02:45:39;;;;;;;6.77;4.30;;;;;;;;;;4973472;28;20222;-53
2023/03/31 02:48:09;;;;;;;7.70;4.03;;;;;;;;;;4973630;28;20557;-53
2023/03/31 02:50:43;;;;;;;6.53;3.90;;;;;;;;;;4973562;28;20703;-53
2023/03/31 02:53:14;;;;;;;7.07;4.53;;;;;;;;;;4973609;28;20207;-54
2023/03/31 02:55:52;;;;;;;9.70;4.20;;;;;;;;;;4973602;28;20205;-54
2023/03/31 02:58:26;;;;;;;7.83;3.80;;;;;;;;;;4973355;28;20676;-54
2023/03/31 03:01:16;;;;;;;5.33;3.90;;;;;;;;;;4973558;28;20618;-54
2023/03/31 03:03:50;;;;;;;8.43;4.20;;;;;;;;;;4963334;28;20207;-53
2023/03/31 03:06:21;;;;;;;10.70;4.10;;;;;;;;;;4973322;28;20203;-55
2023/03/31 03:08:54;;;;;;;7.57;4.03;;;;;;;;;;4973355;28;20563;-53
2023/03/31 03:11:23;;;;;;;5.83;3.40;;;;;;;;;;4973366;28;20231;-54
2023/03/31 03:13:51;;;;;;;6.53;3.60;;;;;;;;;;4973204;28;20198;-54
2023/03/31 03:16:18;;;;;;;5.87;3.47;;;;;;;;;;4973421;28;20199;-53
2023/03/31 03:18:52;;;;;;;8.27;3.60;;;;;;;;;;4973338;28;20206;-54
2023/03/31 03:21:18;;;;;;;7.10;3.80;;;;;;;;;;4973145;28;20199;-54
2023/03/31 03:23:44;;;;;;;6.77;3.20;;;;;;;;;;4973186;28;20277;-53
2023/03/31 03:26:10;;;;;;;6.80;3.07;;;;;;;;;;4973175;28;20234;-54
2023/03/31 03:28:36;;;;;;;10.50;3.13;;;;;;;;;;4972906;28;20195;-54
2023/03/31 03:31:02;;;;;;;8.00;3.07;;;;;;;;;;4972984;28;20841;-54
2023/03/31 03:33:28;;;;;;;6.50;2.67;;;;;;;;;;4972943;28;20218;-53
2023/03/31 03:35:55;;;;;;;4.03;2.50;;;;;;;;;;4972974;28;20195;-54
2023/03/31 03:38:21;;;;;;;4.20;2.23;;;;;;;;;;4972697;28;20242;-52
2023/03/31 03:40:47;;;;;;;6.10;2.40;;;;;;;;;;4972858;28;20198;-52
2023/03/31 03:43:13;;;;;;;5.27;2.67;;;;;;;;;;4972838;28;20209;-53
2023/03/31 03:45:39;;;;;;;7.33;2.87;;;;;;;;;;4972672;28;20226;-52
2023/03/31 03:48:05;;;;;;;6.33;2.53;;;;;;;;;;4972862;28;20199;-52
2023/03/31 03:50:34;;;;;;;6.80;3.00;;;;;;;;;;4972731;28;20202;-53
2023/03/31 03:53:02;;;;;;;4.90;2.30;;;;;;;;;;4972733;28;20563;-54
2023/03/31 03:55:28;;;;;;;4.73;2.20;;;;;;;;;;4972819;28;20195;-52
2023/03/31 03:57:54;;;;;;;7.13;2.53;;;;;;;;;;4972784;28;20209;-53
2023/03/31 04:00:20;;;;;;;3.93;2.10;;;;;;;;;;4972599;28;20269;-54
2023/03/31 04:02:46;;;;;;;5.70;2.30;;;;;;;;;;4972795;28;20627;-53
2023/03/31 04:05:12;;;;;;;6.53;2.30;;;;;;;;;;4972624;28;20344;-53
2023/03/31 04:07:38;;;;;;;5.63;2.43;;;;;;;;;;4972626;28;20665;-54
2023/03/31 04:10:06;;;;;;;6.77;2.47;;;;;;;;;;4972640;28;20294;-54
2023/03/31 04:12:33;;;;;;;5.73;2.63;;;;;;;;;;4972483;28;20201;-53
2023/03/31 04:14:59;;;;;;;6.97;2.50;;;;;;;;;;4972672;28;20638;-53
2023/03/31 04:17:31;;;;;;;5.10;2.40;;;;;;;;;;4972591;28;20209;-53
2023/03/31 04:20:00;;;;;;;5.37;2.17;;;;;;;;;;4974157;28;20202;-52
2023/03/31 04:22:27;;;;;;;6.00;2.50;;;;;;;;;;4976610;28;20213;-53
2023/03/31 04:24:57;;;;;;;5.70;2.30;;;;;;;;;;4976305;28;20265;-53
2023/03/31 04:27:26;;;;;;;6.20;2.67;;;;;;;;;;4976190;28;20207;-52
2023/03/31 04:29:53;;;;;;;7.40;2.50;;;;;;;;;;4976227;28;20704;-52
2023/03/31 04:32:20;;;;;;;7.33;2.30;;;;;;;;;;4976029;28;20247;-54
2023/03/31 04:34:46;;;;;;;4.47;2.10;;;;;;;;;;4976596;28;20202;-52
2023/03/31 04:37:12;;;;;;;11.60;4.47;;;;;;;;;;4975984;28;20254;-54
2023/03/31 04:39:38;;;;;;;7.20;2.77;;;;;;;;;;4976170;28;20206;-52
2023/03/31 04:42:04;;;;;;;5.57;2.67;;;;;;;;;;4975914;28;20199;-52
2023/03/31 04:44:32;;;;;;;4.73;2.20;;;;;;;;;;4975792;28;20587;-53
2023/03/31 04:47:01;;;;;;;7.60;2.17;;;;;;;;;;4975984;28;20209;-52
2023/03/31 04:49:27;;;;;;;4.77;2.00;;;;;;;;;;4975919;28;20669;-52
2023/03/31 04:51:53;;;;;;;8.10;2.27;;;;;;;;;;4975848;28;20307;-52
2023/03/31 04:54:19;;;;;;;10.13;2.83;;;;;;;;;;4975745;28;20230;-52
2023/03/31 04:56:45;;;;;;;8.27;3.07;;;;;;;;;;4975780;28;20366;-52
2023/03/31 04:59:11;;;;;;;4.53;2.00;;;;;;;;;;4975923;28;20293;-53
2023/03/31 05:01:43;;;;;;;5.07;2.33;;;;;;;;;;4975578;28;20282;-52
2023/03/31 05:04:09;;;;;;;7.30;3.40;;;;;;;;;;4975867;28;20274;-52
2023/03/31 05:06:35;;;;;;;8.87;3.80;;;;;;;;;;4975388;28;20199;-51
2023/03/31 05:09:02;;;;;;;10.30;4.57;;;;;;;;;;4975486;28;20336;-50
2023/03/31 05:11:27;;;;;;;5.50;2.90;;;;;;;;;;4975322;28;20673;-51
2023/03/31 05:13:54;;;;;;;7.60;4.57;;;;;;;;;;4975428;28;20285;-51
2023/03/31 05:16:20;;;;;;;13.87;7.67;;;;;;;;;;4975202;28;20199;-51
2023/03/31 05:18:47;;;;;;;11.13;4.30;;;;;;;;;;4975469;28;20207;-51
2023/03/31 05:21:14;;;;;;;6.43;2.23;;;;;;;;;;4975399;28;20207;-51
2023/03/31 05:23:41;;;;;;;8.57;2.07;;;;;;;;;;4975128;28;20816;-51
2023/03/31 05:26:07;;;;;;;6.57;2.37;;;;;;;;;;4975188;28;20273;-51
2023/03/31 05:28:34;;;;;;;7.53;2.10;;;;;;;;;;4974928;28;20199;-52
2023/03/31 05:31:00;;;;;;;5.80;2.20;;;;;;;;;;4974159;28;20229;-52
2023/03/31 05:33:26;;;;;;;9.03;2.70;;;;;;;;;;4974972;28;20575;-52
2023/03/31 05:35:54;;;;;;;7.00;2.77;;;;;;;;;;4975310;28;20285;-50
2023/03/31 05:38:20;;;;;;;7.53;2.73;;;;;;;;;;4974956;28;20262;-51
2023/03/31 05:40:46;;;;;;;5.43;2.20;;;;;;;;;;4974780;28;20273;-50
2023/03/31 05:43:12;;;;;;;3.90;2.10;;;;;;;;;;4974856;28;20207;-50
2023/03/31 05:45:38;;;;;;;6.37;2.47;;;;;;;;;;4974700;28;20234;-50
2023/03/31 05:48:05;;;;;;;5.73;2.33;;;;;;;;;;4974796;28;20606;-52
2023/03/31 05:50:31;;;;;;;5.47;2.10;;;;;;;;;;4974707;28;20214;-51
2023/03/31 05:52:59;;;;;;;5.13;2.23;;;;;;;;;;4974872;28;20217;-51
2023/03/31 05:55:25;;;;;;;6.23;2.40;;;;;;;;;;4974650;28;20199;-52
2023/03/31 05:57:51;;;;;;;6.37;2.37;;;;;;;;;;4974656;28;20203;-52
2023/03/31 06:00:17;;;;;;;5.40;2.53;;;;;;;;;;4974506;28;20286;-53
2023/03/31 06:02:43;;;;;;;6.40;2.20;;;;;;;;;;4974618;28;20290;-54
2023/03/31 06:05:09;;;;;;;7.20;2.60;;;;;;;;;;4974475;28;20322;-50
2023/03/31 06:07:35;;;;;;;10.90;3.00;;;;;;;;;;4974448;28;20199;-51
2023/03/31 06:10:06;;;;;;;11.03;2.80;;;;;;;;;;4974421;28;20286;-50
2023/03/31 06:12:32;;;;;;;8.77;2.97;;;;;;;;;;4974078;28;20198;-49
2023/03/31 06:14:58;;;;;;;5.03;2.57;;;;;;;;;;4974437;28;20195;-50
2023/03/31 06:17:24;;;;;;;6.40;2.50;;;;;;;;;;4974118;28;20203;-52
2023/03/31 06:19:50;;;;;;;7.33;2.80;;;;;;;;;;4974062;28;20635;-51
2023/03/31 06:22:16;;;;;;;5.87;2.70;;;;;;;;;;4973990;28;20243;-50
2023/03/31 06:24:42;;;;;;;8.27;2.93;;;;;;;;;;4973877;28;20261;-51
2023/03/31 06:27:10;;;;;;;9.40;2.87;;;;;;;;;;4973836;28;20716;-52
2023/03/31 06:29:36;;;;;;;7.73;3.10;;;;;;;;;;4973719;28;20861;-51
2023/03/31 06:32:03;;;;;;;10.53;3.00;;;;;;;;;;4973824;28;20229;-52
2023/03/31 06:34:29;;;;;;;7.37;2.60;;;;;;;;;;4973868;28;20195;-52
2023/03/31 06:36:56;;;;;;;8.20;2.70;;;;;;;;;;4973585;28;20609;-52
2023/03/31 06:39:22;;;;;;;6.83;2.90;;;;;;;;;;4973629;28;20420;-52
2023/03/31 06:41:48;;;;;;;6.70;2.90;;;;;;;;;;4973528;28;20249;-50
2023/03/31 06:44:15;;;;;;;6.33;2.63;;;;;;;;;;4973307;28;20251;-51
2023/03/31 06:46:41;;;;;;;7.10;3.10;;;;;;;;;;4973756;28;20203;-52
2023/03/31 06:49:07;;;;;;;6.50;3.07;;;;;;;;;;4973720;28;20206;-51
2023/03/31 06:51:33;;;;;;;6.00;2.77;;;;;;;;;;4973589;28;20575;-52
2023/03/31 06:53:59;;;;;;;7.23;2.80;;;;;;;;;;4973643;28;20203;-54
2023/03/31 06:56:26;;;;;;;9.63;2.97;;;;;;;;;;4973484;28;20294;-53
2023/03/31 06:58:52;;;;;;;8.50;2.90;;;;;;;;;;4971599;28;20202;-53
2023/03/31 07:01:20;;;;;;;6.70;3.10;;;;;;;;;;4973014;28;20205;-53
2023/03/31 07:03:46;;;;;;;10.17;3.30;;;;;;;;;;4972941;28;20211;-53
2023/03/31 07:06:12;;;;;;;7.43;2.77;;;;;;;;;;4972943;28;20237;-54
2023/03/31 07:08:38;;;;;;;10.20;2.90;;;;;;;;;;4972895;28;20233;-53
2023/03/31 07:11:04;;;;;;;8.53;3.23;;;;;;;;;;4972918;28;20220;-52
2023/03/31 07:13:30;;;;;;;5.57;2.97;;;;;;;;;;4972944;28;20753;-52
2023/03/31 07:15:56;;;;;;;6.33;2.73;;;;;;;;;;4973027;28;20199;-52
2023/03/31 07:18:24;;;;;;;5.13;2.60;;;;;;;;;;4972617;28;20195;-52
2023/03/31 07:20:51;;;;;;;9.10;3.07;;;;;;;;;;4972697;28;20211;-52
2023/03/31 07:23:17;;;;;;;7.60;2.83;;;;;;;;;;4972712;28;20286;-54
2023/03/31 07:25:44;;;;;;;7.93;2.70;;;;;;;;;;4972792;28;20231;-53
2023/03/31 07:28:10;;;;;;;7.27;3.00;;;;;;;;;;4972924;28;20202;-52
2023/03/31 07:30:36;;;;;;;9.93;3.07;;;;;;;;;;4972276;28;20578;-54
2023/03/31 07:33:02;;;;;;;8.27;2.77;;;;;;;;;;4972530;28;20249;-53
2023/03/31 07:35:29;;;;;;;11.10;3.30;;;;;;;;;;4972689;28;20191;-53
2023/03/31 07:37:55;;;;;;;5.17;2.63;;;;;;;;;;4972301;28;20238;-54
2023/03/31 07:40:23;;;;;;;6.13;3.07;;;;;;;;;;4972420;28;20203;-53
2023/03/31 07:42:50;;;;;;;5.03;2.67;;;;;;;;;;4972336;28;20217;-54
2023/03/31 07:45:17;;;;;;;3.57;2.53;;;;;;;;;;4972531;28;20242;-53
2023/03/31 07:47:45;;;;;;;10.50;3.40;;;;;;;;;;4972504;28;20203;-54
2023/03/31 07:50:11;;;;;;;8.57;3.03;;;;;;;;;;4972551;28;20285;-54
2023/03/31 07:52:38;;;;;;;7.73;3.13;;;;;;;;;;4972701;28;20210;-54
2023/03/31 07:55:05;;;;;;;4.90;2.77;;;;;;;;;;4973999;28;20661;-54
2023/03/31 07:57:31;;;;;;;8.40;2.90;;;;;;;;;;4976428;28;20302;-54
2023/03/31 07:59:57;;;;;;;6.70;2.77;;;;;;;;;;4976602;28;20230;-54
2023/03/31 08:02:23;;;;;;;5.70;2.57;;;;;;;;;;4976264;28;20214;-53
2023/03/31 08:04:49;;;;;;;7.37;2.47;;;;;;;;;;4976102;28;20719;-52
2023/03/31 08:07:16;;;;;;;6.37;3.00;;;;;;;;;;4976274;28;20199;-53
2023/03/31 08:09:45;;;;;;;6.67;2.63;;;;;;;;;;4976307;28;20182;-53
2023/03/31 08:12:11;;;;;;;7.77;2.87;;;;;;;;;;4976288;28;20215;-55
2023/03/31 08:14:37;;;;;;;5.97;2.90;;;;;;;;;;4975976;28;20845;-54
2023/03/31 08:17:03;;;;;;;6.87;2.53;;;;;;;;;;4976129;28;20198;-54
2023/03/31 08:19:29;;;;;;;6.97;2.90;;;;;;;;;;4976169;28;20206;-54
2023/03/31 08:21:56;;;;;;;6.00;2.40;;;;;;;;;;4976193;28;20195;-53
2023/03/31 08:24:22;;;;;;;6.43;2.50;;;;;;;;;;4975817;28;20294;-54
2023/03/31 08:26:49;;;;;;;8.23;3.03;;;;;;;;;;4975759;28;20716;-53
2023/03/31 08:29:15;;;;;;;5.93;2.60;;;;;;;;;;4975956;28;20624;-53
2023/03/31 08:31:41;;;;;;;5.37;2.70;;;;;;;;;;4975713;28;20258;-53
2023/03/31 08:34:07;;;;;;;6.27;2.60;;;;;;;;;;4975842;28;20222;-53
2023/03/31 08:36:33;;;;;;;9.63;3.00;;;;;;;;;;4975488;28;20231;-53
2023/03/31 08:38:59;;;;;;;5.70;3.00;;;;;;;;;;4975810;28;20195;-53
2023/03/31 08:41:34;;;;;;;7.47;3.00;;;;;;;;;;4975471;28;20203;-53
2023/03/31 08:44:03;;;;;;;6.20;2.80;;;;;;;;;;4975640;28;20214;-53
2023/03/31 08:46:30;;;;;;;6.00;2.70;;;;;;;;;;4975616;28;20246;-53
2023/03/31 08:48:57;;;;;;;9.73;3.03;;;;;;;;;;4975521;28;20229;-60
2023/03/31 08:51:26;;;;;;;7.63;2.83;;;;;;;;;;4975123;28;20722;-60
2023/03/31 08:53:57;;;;;;;5.67;2.80;;;;;;;;;;4975352;28;20202;-60
2023/03/31 08:56:26;;;;;;;7.30;2.67;;;;;;;;;;4967665;28;20273;-60
2023/03/31 08:58:52;;;;;;;6.13;3.23;;;;;;;;;;4975246;28;20518;-60
2023/03/31 09:01:23;;;;;;;4.63;2.70;;;;;;;;;;4974896;28;20239;-60
2023/03/31 09:03:57;;;;;;;6.87;3.03;;;;;;;;;;4972688;28;20737;-59
2023/03/31 09:06:26;;;;;;;5.20;2.77;;;;;;;;;;4972856;28;20235;-60
2023/03/31 09:08:58;;;;;;;9.00;2.30;;;;;;;;;;4974948;28;20209;-60
2023/03/31 09:11:27;;;;;;;4.97;2.60;;;;;;;;;;4974798;28;20195;-60
2023/03/31 09:14:02;;;;;;;7.27;2.97;;;;;;;;;;4975008;28;20203;-61
2023/03/31 09:16:31;;;;;;;4.03;2.70;;;;;;;;;;4974805;28;20206;-61
2023/03/31 09:18:59;;;;;;;5.50;2.40;;;;;;;;;;4975022;28;20226;-60
2023/03/31 09:21:28;;;;;;;14.53;2.80;;;;;;;;;;4974814;28;20294;-60
2023/03/31 09:23:58;;;;;;;3.97;2.60;;;;;;;;;;4974852;28;20649;-61
2023/03/31 09:26:26;;;;;;;3.33;2.30;;;;;;;;;;4974545;28;20317;-61
2023/03/31 09:28:54;;;;;;;6.03;2.37;;;;;;;;;;4974794;28;20211;-61
2023/03/31 09:31:20;;;;;;;4.30;2.50;;;;;;;;;;4974536;28;20219;-61
2023/03/31 09:33:47;;;;;;;5.30;2.60;;;;;;;;;;4974754;28;20282;-60
2023/03/31 09:36:14;;;;;;;5.43;2.20;;;;;;;;;;4974551;28;20203;-60
2023/03/31 09:38:42;;;;;;;4.73;2.20;;;;;;;;;;4974493;28;20702;-60
2023/03/31 09:41:08;;;;;;;4.70;2.50;;;;;;;;;;4974419;28;20199;-59
2023/03/31 09:43:34;;;;;;;5.20;2.50;;;;;;;;;;4974296;28;20201;-58
2023/03/31 09:46:00;;;;;;;7.77;2.57;;;;;;;;;;4974352;28;20693;-59
2023/03/31 09:48:28;;;;;;;4.93;2.30;;;;;;;;;;4974302;28;20199;-58
2023/03/31 09:50:57;;;;;;;3.30;2.10;;;;;;;;;;4974525;28;20637;-59
2023/03/31 09:53:28;;;;;;;5.53;2.40;;;;;;;;;;4974086;28;20207;-57
2023/03/31 09:55:58;;;;;;;6.57;2.20;;;;;;;;;;4974215;28;20215;-58
2023/03/31 09:58:24;;;;;;;6.87;2.33;;;;;;;;;;4974062;28;20207;-59
2023/03/31 10:00:57;;;;;;;5.87;2.30;;;;;;;;;;4974035;28;20203;-58
2023/03/31 10:03:26;;;;;;;4.60;2.60;;;;;;;;;;4974051;28;20207;-57
2023/03/31 10:05:54;;;;;;;3.43;2.20;;;;;;;;;;4973977;28;20269;-57
2023/03/31 10:08:24;;;;;;;3.27;1.70;;;;;;;;;;4973857;28;20214;-58
2023/03/31 10:10:51;;;;;;;3.93;2.20;;;;;;;;;;4973918;28;20211;-58
2023/03/31 10:13:19;;;;;;;3.67;1.90;;;;;;;;;;4973834;28;20198;-58
2023/03/31 10:15:45;;;;;;;6.43;2.00;;;;;;;;;;4973852;28;20705;-58
2023/03/31 10:18:13;;;;;;;5.00;1.90;;;;;;;;;;4973137;28;20241;-58
2023/03/31 10:20:42;;;;;;;4.60;1.93;;;;;;;;;;4973620;28;20215;-59
2023/03/31 10:23:15;;;;;;;3.80;1.73;;;;;;;;;;4973812;28;20219;-58
2023/03/31 10:25:43;;;;;;;3.47;2.00;;;;;;;;;;4973646;28;20237;-59
2023/03/31 10:28:11;;;;;;;2.97;1.80;;;;;;;;;;4973766;28;20229;-59
2023/03/31 10:30:39;;;;;;;3.10;2.03;;;;;;;;;;4973514;28;20201;-59
2023/03/31 10:33:06;;;;;;;2.73;1.73;;;;;;;;;;4973655;28;20211;-58
2023/03/31 10:35:33;;;;;;;5.57;2.07;;;;;;;;;;4973586;28;20282;-58
2023/03/31 10:38:20;;;;;;;3.30;2.10;;;;;;;;;;4973398;28;20238;-59
2023/03/31 10:40:50;;;;;;;4.33;1.90;;;;;;;;;;4971629;28;20294;-60
2023/03/31 10:43:17;;;;;;;2.93;1.70;;;;;;;;;;4973530;28;20210;-59
2023/03/31 10:45:47;;;;;;;5.87;2.13;;;;;;;;;;4973427;28;20236;-60
2023/03/31 10:48:17;;;;;;;4.30;1.80;;;;;;;;;;4973460;28;20191;-59
2023/03/31 10:50:43;;;;;;;3.67;2.20;;;;;;;;;;4973258;28;20214;-57
2023/03/31 10:53:11;;;;;;;2.57;2.37;;;;;;;;;;4973209;28;20198;-58
2023/03/31 10:55:41;;;;;;;3.27;2.10;;;;;;;;;;4973093;28;20253;-59
2023/03/31 10:58:20;;;;;;;5.60;2.50;;;;;;;;;;4973652;28;20277;-58
2023/03/31 11:00:55;;;;;;;3.10;2.33;;;;;;;;;;4973721;28;20203;-55
2023/03/31 11:03:36;;;;;;;4.87;2.07;;;;;;;;;;4973543;28;20206;-54
2023/03/31 11:06:06;;;;;;;3.67;2.07;;;;;;;;;;4973400;28;20231;-50
2023/03/31 11:08:40;;;;;;;3.73;2.03;;;;;;;;;;4972857;28;20223;-51
2023/03/31 11:11:24;;;;;;;4.77;2.27;;;;;;;;;;4973291;28;20186;-53
2023/03/31 11:13:56;;;;;;;2.73;2.23;;;;;;;;;;4973270;28;20668;-51
2023/03/31 11:16:25;;;;;;;3.63;2.00;;;;;;;;;;4973306;28;20238;-53
2023/03/31 11:18:59;;;;;;;2.53;1.90;;;;;;;;;;4973319;28;20201;-53
2023/03/31 11:21:28;;;;;;;2.73;1.83;;;;;;;;;;4973174;28;20219;-52
2023/03/31 11:24:01;;;;;;;3.70;2.40;;;;;;;;;;4973252;28;20285;-52
2023/03/31 11:26:31;;;;;;;3.63;2.00;;;;;;;;;;4973121;28;20272;-53
2023/03/31 11:29:15;;;;;;;4.57;2.20;;;;;;;;;;4973725;28;20199;-52
2023/03/31 11:31:48;;;;;;;3.07;2.10;;;;;;;;;;4973020;28;20249;-53
2023/03/31 11:34:23;;;;;;;2.60;2.00;;;;;;;;;;4973214;28;20261;-52
2023/03/31 11:37:03;;;;;;;3.53;2.07;;;;;;;;;;4973012;28;20244;-52
2023/03/31 11:39:36;;;;;;;3.27;2.20;;;;;;;;;;4973054;28;20203;-54
2023/03/31 11:42:05;;;;;;;3.10;1.80;;;;;;;;;;4972802;28;20289;-54
2023/03/31 11:44:41;;;;;;;4.37;2.10;;;;;;;;;;4972795;28;20207;-53
2023/03/31 11:47:08;;;;;;;3.27;1.93;;;;;;;;;;4971584;28;20221;-54
2023/03/31 11:49:37;;;;;;;1.93;1.70;;;;;;;;;;4972716;28;20203;-53
2023/03/31 11:52:08;;;;;;;3.73;2.07;;;;;;;;;;4972944;28;20206;-52
2023/03/31 11:54:37;;;;;;;2.60;2.10;;;;;;;;;;4972758;28;20626;-52
2023/03/31 11:57:06;;;;;;;2.50;2.10;;;;;;;;;;4972671;28;20214;-51
2023/03/31 11:59:34;;;;;;;4.67;2.37;;;;;;;;;;4972626;28;20211;-51
2023/03/31 12:02:03;;;;;;;5.77;2.20;;;;;;;;;;4972905;28;20207;-50
2023/03/31 12:04:33;;;;;;;6.00;2.30;;;;;;;;;;4972618;28;20823;-51
2023/03/31 12:07:02;;;;;;;4.83;2.13;;;;;;;;;;4972896;28;20203;-53
2023/03/31 12:09:32;;;;;;;2.47;2.07;;;;;;;;;;4972789;28;20199;-51
2023/03/31 12:12:01;;;;;;;4.07;2.10;;;;;;;;;;4972738;28;20206;-51
2023/03/31 12:14:30;;;;;;;4.50;2.20;;;;;;;;;;4972668;28;20195;-51
2023/03/31 12:16:59;;;;;;;2.90;1.80;;;;;;;;;;4972759;28;20199;-52
2023/03/31 12:19:27;;;;;;;3.80;2.20;;;;;;;;;;4972434;28;20199;-52
2023/03/31 12:21:56;;;;;;;3.50;2.40;;;;;;;;;;4972677;28;20206;-52
2023/03/31 12:24:22;;;;;;;3.47;2.20;;;;;;;;;;4972417;28;20206;-51
2023/03/31 12:26:52;;;;;;;5.93;2.33;;;;;;;;;;4972369;28;20254;-52
2023/03/31 12:29:22;;;;;;;4.27;2.37;;;;;;;;;;4972600;28;20211;-52
2023/03/31 12:31:50;;;;;;;4.37;2.50;;;;;;;;;;4972289;28;20616;-52
2023/03/31 12:34:19;;;;;;;5.87;2.20;;;;;;;;;;4972278;28;20203;-52
2023/03/31 12:36:50;;;;;;;2.30;2.10;;;;;;;;;;4972098;28;20235;-52
2023/03/31 12:39:22;;;;;;;3.07;2.13;;;;;;;;;;4972490;28;20632;-51
2023/03/31 12:42:00;;;;;;;2.43;2.17;;;;;;;;;;4974849;28;20538;-52
2023/03/31 12:44:31;;;;;;;4.40;2.23;;;;;;;;;;4975956;28;20199;-52
2023/03/31 12:47:11;;;;;;;3.77;1.90;;;;;;;;;;4976024;28;20206;-54
2023/03/31 12:49:52;;;;;;;3.73;2.10;;;;;;;;;;4974079;28;20293;-54
2023/03/31 12:52:23;;;;;;;4.73;2.03;;;;;;;;;;4961560;28;20215;-53
2023/03/31 12:55:12;;;;;;;4.73;2.03;;;;;;;;;;4956178;29;20206;-53
2023/03/31 12:57:38;;;;;;;5.57;2.10;;;;;;;;;;4956427;29;20214;-57
2023/03/31 13:00:20;;;;;;;4.17;2.00;;;;;;;;;;4956269;29;20203;-53
2023/03/31 13:02:47;;;;;;;6.90;2.30;;;;;;;;;;4954532;29;20191;-51
2023/03/31 13:05:28;;;;;;;5.57;2.17;;;;;;;;;;4969050;28;20245;-53
2023/03/31 13:07:55;;;;;;;4.57;2.10;;;;;;;;;;4975054;28;20317;-52
2023/03/31 13:10:25;;;;;;;5.57;1.97;;;;;;;;;;4975057;28;20325;-51
2023/03/31 13:12:57;;;;;;;4.63;2.17;;;;;;;;;;4975338;28;20290;-53
2023/03/31 13:15:24;;;;;;;4.30;2.30;;;;;;;;;;4974995;28;20203;-52
2023/03/31 13:17:55;;;;;;;3.80;2.30;;;;;;;;;;4975036;28;20541;-51
2023/03/31 13:20:28;;;;;;;3.93;2.17;;;;;;;;;;4974977;28;20311;-50
2023/03/31 13:23:01;;;;;;;4.50;2.30;;;;;;;;;;4974980;28;20285;-52
2023/03/31 13:25:39;;;;;;;4.53;2.30;;;;;;;;;;4975051;28;20253;-53
2023/03/31 13:28:24;;;;;;;5.60;2.23;;;;;;;;;;4975148;28;20202;-53
2023/03/31 13:30:52;;;;;;;5.23;2.30;;;;;;;;;;4974728;28;20674;-50
2023/03/31 13:33:23;;;;;;;6.37;2.67;;;;;;;;;;4974262;28;20207;-54
2023/03/31 13:35:52;;;;;;;5.30;1.90;;;;;;;;;;4975077;28;20206;-52
2023/03/31 13:38:25;;;;;;;4.30;2.00;;;;;;;;;;4974610;28;20732;-52
2023/03/31 13:40:55;;;;;;;4.33;2.17;;;;;;;;;;4974798;28;20641;-52
2023/03/31 13:43:36;;;;;;;6.47;2.40;;;;;;;;;;4974211;28;20202;-52
2023/03/31 13:46:15;;;;;;;4.40;2.30;;;;;;;;;;4974564;28;20234;-53
2023/03/31 13:48:47;;;;;;;2.90;2.00;;;;;;;;;;4974545;28;20337;-53
2023/03/31 13:51:18;;;;;;;2.97;2.13;;;;;;;;;;4974471;28;20657;-53
2023/03/31 13:54:04;;;;;;;4.63;2.17;;;;;;;;;;4972533;28;20203;-53
2023/03/31 13:56:39;;;;;;;4.43;2.13;;;;;;;;;;4974407;28;20798;-53
2023/03/31 13:59:11;;;;;;;4.50;2.30;;;;;;;;;;4974565;28;20552;-53
2023/03/31 14:01:48;;;;;;;4.33;1.90;;;;;;;;;;4974172;28;20631;-52
2023/03/31 14:04:23;;;;;;;4.80;2.60;;;;;;;;;;4974484;28;20265;-53
2023/03/31 14:06:51;;;;;;;4.57;2.47;;;;;;;;;;4973813;28;20785;-53
2023/03/31 14:09:23;;;;;;;6.03;3.07;;;;;;;;;;4974107;28;20207;-52
2023/03/31 14:11:49;;;;;;;4.63;2.33;;;;;;;;;;4972942;28;20290;-51
2023/03/31 14:14:16;;;;;;;6.23;3.00;;;;;;;;;;4974338;28;20294;-52
2023/03/31 14:16:44;;;;;;;4.83;2.70;;;;;;;;;;4973243;28;20222;-52
2023/03/31 14:19:31;;;;;;;6.80;2.83;;;;;;;;;;4970528;28;20206;-53
2023/03/31 14:22:02;;;;;;;8.97;2.77;;;;;;;;;;4969064;28;20274;-53
2023/03/31 14:24:33;;;;;;;5.23;2.63;;;;;;;;;;4973997;28;20207;-52
2023/03/31 14:27:04;;;;;;;3.40;2.70;;;;;;;;;;4974215;28;20577;-52
2023/03/31 14:29:34;;;;;;;4.03;2.27;;;;;;;;;;4973900;28;20195;-52
2023/03/31 14:32:06;;;;;;;6.77;2.63;;;;;;;;;;4973865;28;20223;-52
2023/03/31 14:34:45;;;;;;;4.40;2.60;;;;;;;;;;4973723;28;20202;-52
2023/03/31 14:40:23;;;;;;;5.80;2.70;;;;;;;;;;4973746;28;20707;-53
2023/03/31 14:42:49;;;;;;;5.60;2.50;;;;;;;;;;4973742;28;20724;-53
2023/03/31 14:45:17;;;;;;;5.37;2.40;;;;;;;;;;4973598;28;20225;-53
2023/03/31 14:47:52;;;;;;;4.37;2.70;;;;;;;;;;4973908;28;20210;-53
2023/03/31 14:50:18;;;;;;;6.20;2.80;;;;;;;;;;4973631;28;20207;-53
2023/03/31 14:52:46;;;;;;;6.63;2.93;;;;;;;;;;4973813;28;20203;-54
2023/03/31 14:55:14;;;;;;;6.83;2.50;;;;;;;;;;4973607;28;20202;-54